Time;durP1;ratioP1;P1;durP2;ratioP2;P2;SDS_P1;SDS_P2;PMS_P1;PMS_P2;Temp;Humidity;BMP_temperature;BMP_pressure;BME280_temperature;BME280_humidity;BME280_pressure;Samples;Min_cycle;Max_cycle;Signal;HPM_P1;HPM_P2
2023/03/21 00:01:51;;;;;;;13.55;7.13;;;;;;;13.94;57.17;101611.69;4947353;28;124002;-69
2023/03/21 00:04:20;;;;;;;14.65;7.15;;;;;;;13.92;57.19;101608.22;4956980;28;114712;-69
2023/03/21 00:06:47;;;;;;;16.90;7.15;;;;;;;13.92;57.08;101605.53;4954945;28;113758;-69
2023/03/21 00:09:14;;;;;;;17.38;7.10;;;;;;;13.92;57.22;101605.53;4951834;28;124254;-69
2023/03/21 00:11:42;;;;;;;14.52;6.85;;;;;;;13.90;57.14;101599.44;4949180;28;123699;-69
2023/03/21 00:14:13;;;;;;;10.85;6.50;;;;;;;13.90;57.28;101599.44;4951239;28;114514;-69
2023/03/21 00:16:40;;;;;;;10.23;6.82;;;;;;;13.90;57.37;101599.44;4965080;28;113759;-68
2023/03/21 00:19:08;;;;;;;13.27;7.32;;;;;;;13.88;57.26;101590.66;4957442;28;123963;-69
2023/03/21 00:21:37;;;;;;;11.25;7.07;;;;;;;13.87;57.35;101588.94;4960470;28;124367;-69
2023/03/21 00:24:24;;;;;;;14.85;7.45;;;;;;;13.85;57.38;101590.81;4952020;28;114368;-69
2023/03/21 00:26:51;;;;;;;12.20;7.47;;;;;;;13.85;57.54;101590.81;4959085;28;114430;-69
2023/03/21 00:29:19;;;;;;;12.68;7.38;;;;;;;13.82;57.50;101590.03;4972013;28;123905;-69
2023/03/21 00:31:47;;;;;;;12.85;7.15;;;;;;;13.83;57.62;101588.22;4948485;28;124679;-68
2023/03/21 00:34:14;;;;;;;12.25;7.22;;;;;;;13.85;57.65;101585.50;4948609;28;114116;-69
2023/03/21 00:36:42;;;;;;;13.13;7.78;;;;;;;13.83;57.75;101573.09;4956147;28;115142;-70
2023/03/21 00:39:10;;;;;;;15.57;8.05;;;;;;;13.83;57.64;101572.25;4954918;28;124142;-69
2023/03/21 00:41:38;;;;;;;14.82;8.07;;;;;;;13.81;57.81;101571.44;4952975;28;123142;-68
2023/03/21 00:44:12;;;;;;;17.77;8.18;;;;;;;13.80;57.81;101573.22;4965806;28;113225;-69
2023/03/21 00:46:40;;;;;;;15.60;8.55;;;;;;;13.79;58.00;101576.84;4960806;28;113078;-69
2023/03/21 00:49:23;;;;;;;17.40;8.23;;;;;;;13.79;58.00;101574.19;4957644;28;124345;-69
2023/03/21 00:51:50;;;;;;;14.70;8.00;;;;;;;13.77;57.96;101578.72;4956124;28;124744;-69
2023/03/21 00:54:18;;;;;;;19.48;8.70;;;;;;;13.76;58.00;101576.97;4954037;28;113754;-69
2023/03/21 00:56:45;;;;;;;13.50;8.90;;;;;;;13.73;58.01;101571.81;4957934;28;113870;-70
2023/03/21 00:59:12;;;;;;;16.40;9.50;;;;;;;13.72;58.22;101570.06;4959048;28;124770;-68
2023/03/21 01:01:39;;;;;;;20.10;9.25;;;;;;;13.70;58.37;101571.09;4954765;28;123872;-69
2023/03/21 01:04:12;;;;;;;17.15;9.10;;;;;;;13.69;58.45;101559.56;4960194;28;114535;-69
2023/03/21 01:06:42;;;;;;;19.98;9.68;;;;;;;13.65;58.40;101559.78;4962392;28;113542;-69
2023/03/21 01:09:20;;;;;;;17.73;9.52;;;;;;;13.62;58.51;101558.13;4956596;28;124324;-69
2023/03/21 01:11:48;;;;;;;19.45;9.70;;;;;;;13.61;58.48;101551.06;4960946;28;123003;-69
2023/03/21 01:14:17;;;;;;;17.15;9.27;;;;;;;13.60;58.77;101554.69;4962723;28;113545;-68
2023/03/21 01:16:51;;;;;;;18.30;10.18;;;;;;;13.57;58.88;101541.50;4955779;28;114392;-69
2023/03/21 01:19:21;;;;;;;20.35;10.10;;;;;;;13.56;58.71;101542.44;4956016;28;124208;-68
2023/03/21 01:21:55;;;;;;;20.35;9.90;;;;;;;13.54;58.82;101538.97;4954152;28;123680;-69
2023/03/21 01:24:23;;;;;;;20.58;11.15;;;;;;;13.54;58.89;101538.97;4959457;28;114629;-69
2023/03/21 01:26:51;;;;;;;21.77;10.80;;;;;;;13.53;58.99;101538.13;4952060;28;115056;-69
2023/03/21 01:29:18;;;;;;;23.63;10.68;;;;;;;13.53;59.05;101531.94;4956478;28;124149;-69
2023/03/21 01:31:45;;;;;;;21.85;9.93;;;;;;;13.52;59.12;101524.88;4960088;28;124542;-69
2023/03/21 01:34:12;;;;;;;21.02;9.70;;;;;;;13.53;59.03;101526.63;4957127;28;114625;-69
2023/03/21 01:36:40;;;;;;;17.80;9.50;;;;;;;13.52;59.00;101524.88;4974618;28;114255;-69
2023/03/21 01:39:12;;;;;;;18.98;9.50;;;;;;;13.51;59.16;101523.19;4974368;28;122358;-69
2023/03/21 01:41:41;;;;;;;18.13;9.77;;;;;;;13.49;59.12;101520.56;4964560;28;123902;-69
2023/03/21 01:44:25;;;;;;;;;;;;;;;13.48;58.83;101517.97;4955462;28;113954;-69
2023/03/21 01:46:53;;;;;;;16.77;8.35;;;;;;;13.50;58.88;101514.31;4962114;28;114886;-69
2023/03/21 01:49:49;;;;;;;16.33;8.20;;;;;;;13.49;58.99;101514.41;4960282;28;124265;-69
2023/03/21 01:52:37;;;;;;;14.00;8.32;;;;;;;13.48;59.18;101513.50;4965891;28;123599;-69
2023/03/21 01:55:25;;;;;;;15.55;8.60;;;;;;;13.49;59.16;101509.09;4962148;28;114484;-69
2023/03/21 01:57:58;;;;;;;16.85;8.13;;;;;;;13.51;59.14;101499.22;4960649;28;113550;-69
2023/03/21 02:00:42;;;;;;;16.92;8.85;;;;;;;13.54;59.13;101499.06;4955054;28;124036;-69
2023/03/21 02:03:23;;;;;;;17.15;8.48;;;;;;;13.58;59.17;101497.97;4967897;28;123097;-70
2023/03/21 02:07:03;;;;;;;15.82;8.18;;;;;;;13.59;59.13;101495.25;4960221;28;114904;-69
2023/03/21 02:09:45;;;;;;;17.95;8.60;;;;;;;13.61;59.16;101497.84;4968500;28;113209;-69
2023/03/21 02:12:17;;;;;;;21.02;8.95;;;;;;;13.63;59.05;101485.31;4953391;28;123826;-69
2023/03/21 02:14:47;;;;;;;18.88;8.85;;;;;;;13.65;59.01;101482.59;4964091;28;123039;-69
2023/03/21 02:17:53;;;;;;;18.10;8.52;;;;;;;13.66;58.95;101485.19;4974294;28;114703;-70
2023/03/21 02:20:29;;;;;;;18.83;8.52;;;;;;;13.69;58.99;101474.38;4980098;28;114691;-69
2023/03/21 02:23:40;;;;;;;13.73;7.43;;;;;;;13.71;58.95;101472.53;4942866;28;124740;-69
2023/03/21 02:26:39;;;;;;;15.50;7.30;;;;;;;13.71;58.81;101477.84;4980379;28;123219;-68
2023/03/21 02:29:35;;;;;;;14.00;7.20;;;;;;;13.72;58.80;101474.25;4955986;28;114692;-69
2023/03/21 02:32:17;;;;;;;14.32;7.05;;;;;;;13.73;58.94;101469.75;4961907;28;113470;-69
2023/03/21 02:35:48;;;;;;;18.42;7.85;;;;;;;13.72;58.74;101468.91;4960447;28;123641;-69
2023/03/21 02:38:36;;;;;;;13.20;6.95;;;;;;;13.73;58.73;101460.00;4955585;28;123125;-69
2023/03/21 02:41:16;;;;;;;13.48;7.05;;;;;;;13.72;58.74;101457.41;4960887;28;113470;-69
2023/03/21 02:43:54;;;;;;;14.77;6.82;;;;;;;13.72;58.75;101452.94;4950577;28;113483;-68
2023/03/21 02:46:33;;;;;;;15.77;7.63;;;;;;;13.71;58.70;101451.22;4978311;28;123373;-69
2023/03/21 02:49:30;;;;;;;15.25;7.22;;;;;;;13.71;58.81;101451.22;4964516;28;124110;-69
2023/03/21 02:51:58;;;;;;;13.23;7.38;;;;;;;13.69;58.64;101442.44;4963981;28;114103;-69
2023/03/21 02:54:42;;;;;;;12.65;6.72;;;;;;;13.69;58.57;101445.09;4965086;28;113663;-69
2023/03/21 02:57:19;;;;;;;13.73;7.38;;;;;;;13.68;58.80;101451.38;4972139;28;123273;-69
2023/03/21 02:59:50;;;;;;;14.88;6.97;;;;;;;13.69;58.69;101445.09;4976284;28;122911;-68
2023/03/21 03:02:31;;;;;;;13.23;7.07;;;;;;;13.68;58.69;101446.03;4975662;28;113869;-69
2023/03/21 03:04:59;;;;;;;18.10;7.93;;;;;;;13.66;58.71;101447.91;4958119;28;114280;-69
2023/03/21 03:07:52;;;;;;;16.90;6.93;;;;;;;13.65;58.70;101440.84;4975530;28;123314;-69
2023/03/21 03:10:57;;;;;;;13.65;7.75;;;;;;;13.65;58.75;101451.50;4958057;28;124737;-69
2023/03/21 03:13:46;;;;;;;12.55;7.13;;;;;;;13.63;58.74;101448.06;4969309;28;114444;-69
2023/03/21 03:16:35;;;;;;;17.90;7.25;;;;;;;13.63;58.69;101442.72;4958296;28;115712;-69
2023/03/21 03:19:09;;;;;;;15.90;7.43;;;;;;;13.63;58.84;101442.72;4972185;28;123749;-69
2023/03/21 03:21:50;;;;;;;13.45;7.07;;;;;;;13.62;58.79;101441.88;4954646;28;124457;-69
2023/03/21 03:24:29;;;;;;;15.52;6.97;;;;;;;13.64;58.74;101433.81;4965696;28;114042;-69
2023/03/21 03:27:09;;;;;;;15.07;7.43;;;;;;;13.64;58.52;101433.81;4950159;28;113235;-69
2023/03/21 03:29:40;;;;;;;16.13;7.07;;;;;;;13.64;58.66;101439.16;4955268;28;123270;-67
2023/03/21 03:32:17;;;;;;;14.55;7.20;;;;;;;13.63;58.87;101427.63;4961486;28;125219;-69
2023/03/21 03:34:50;;;;;;;16.30;7.13;;;;;;;13.64;58.64;101431.16;4955680;28;112806;-69
2023/03/21 03:37:25;;;;;;;13.45;7.28;;;;;;;13.63;58.61;101422.28;4956881;28;113841;-69
2023/03/21 03:39:58;;;;;;;13.43;7.05;;;;;;;13.62;58.52;101430.38;4954427;28;123301;-70
2023/03/21 03:42:51;;;;;;;18.48;7.30;;;;;;;13.59;58.55;101419.88;4965448;28;124125;-69
2023/03/21 03:45:32;;;;;;;15.55;7.38;;;;;;;13.58;58.77;101419.00;4972859;28;113565;-69
2023/03/21 03:48:05;;;;;;;14.98;8.02;;;;;;;13.59;58.61;101417.22;4951243;28;113222;-69
2023/03/21 03:50:49;;;;;;;15.35;7.18;;;;;;;13.58;58.65;101418.13;4968731;28;123403;-69
2023/03/21 03:53:29;;;;;;;16.65;7.10;;;;;;;13.58;58.59;101420.78;4961903;28;124530;-69
2023/03/21 03:55:58;;;;;;;14.82;8.02;;;;;;;13.58;58.57;101419.00;4959360;28;114064;-69
2023/03/21 03:58:28;;;;;;;19.42;7.97;;;;;;;13.60;58.69;101421.59;4954202;28;114513;-69
2023/03/21 04:01:12;;;;;;;16.30;7.65;;;;;;;13.59;58.55;101420.72;4955143;28;123153;-69
2023/03/21 04:03:43;;;;;;;12.63;7.38;;;;;;;13.59;58.54;101414.53;4953585;28;125134;-69
2023/03/21 04:06:21;;;;;;;16.13;7.45;;;;;;;13.58;58.45;101418.13;4958273;28;114813;-68
2023/03/21 04:08:50;;;;;;;14.13;7.50;;;;;;;13.56;58.58;101404.03;4965765;28;114521;-68
2023/03/21 04:11:17;;;;;;;15.75;7.55;;;;;;;13.53;58.60;101404.22;4965187;28;122447;-68
2023/03/21 04:13:49;;;;;;;15.45;7.60;;;;;;;13.51;58.58;101403.41;4950635;28;122959;-68
2023/03/21 04:16:22;;;;;;;15.95;7.60;;;;;;;13.49;58.56;101403.50;4944918;28;113662;-68
2023/03/21 04:18:51;;;;;;;17.65;7.38;;;;;;;13.48;58.70;101398.22;4957859;28;113268;-68
2023/03/21 04:21:18;;;;;;;15.50;7.63;;;;;;;13.47;58.59;101399.16;4956601;28;124072;-68
2023/03/21 04:23:45;;;;;;;17.55;7.93;;;;;;;13.44;58.80;101401.03;4971412;28;124086;-68
2023/03/21 04:26:13;;;;;;;15.70;7.35;;;;;;;13.42;58.67;101392.25;4971284;28;113470;-68
2023/03/21 04:28:50;;;;;;;20.92;7.47;;;;;;;13.42;58.87;101402.91;4954189;28;114905;-68
2023/03/21 04:31:25;;;;;;;19.10;7.80;;;;;;;13.41;58.71;101395.88;4952104;28;124809;-68
2023/03/21 04:34:08;;;;;;;18.55;7.20;;;;;;;13.40;58.91;101388.81;4958459;28;123229;-68
2023/03/21 04:36:46;;;;;;;13.88;7.03;;;;;;;13.40;58.84;101388.81;4975719;28;113830;-68
2023/03/21 04:39:14;;;;;;;15.52;7.47;;;;;;;13.37;59.04;101394.31;4958654;28;113288;-68
2023/03/21 04:41:47;;;;;;;13.48;6.97;;;;;;;13.36;59.01;101381.91;4953362;28;98601;-68
2023/03/21 04:44:16;;;;;;;13.75;7.45;;;;;;;13.34;59.01;101383.81;4968378;28;124384;-68
2023/03/21 04:46:44;;;;;;;15.85;7.30;;;;;;;13.34;58.94;101391.78;4969633;28;113718;-68
2023/03/21 04:49:12;;;;;;;14.88;8.02;;;;;;;13.34;59.06;101381.13;4958418;28;112890;-68
2023/03/21 04:51:43;;;;;;;13.45;6.88;;;;;;;13.33;59.14;101382.06;4974467;28;123557;-68
2023/03/21 04:54:12;;;;;;;15.85;7.80;;;;;;;13.32;59.09;101379.50;4973687;28;123770;-68
2023/03/21 04:56:41;;;;;;;18.20;7.35;;;;;;;13.30;59.28;101379.56;4949615;28;114404;-69
2023/03/21 04:59:12;;;;;;;14.18;7.40;;;;;;;13.29;59.22;101375.13;4970444;28;114048;-68
2023/03/21 05:01:42;;;;;;;14.30;7.40;;;;;;;13.28;59.30;101368.09;4967959;28;123341;-68
2023/03/21 05:04:12;;;;;;;15.00;7.70;;;;;;;13.27;59.24;101377.00;4948936;28;123174;-68
2023/03/21 05:06:43;;;;;;;13.35;7.03;;;;;;;13.26;59.43;101375.31;4954160;28;115083;-68
2023/03/21 05:09:11;;;;;;;17.98;7.75;;;;;;;13.26;59.39;101377.97;4965359;28;113703;-68
2023/03/21 05:11:40;;;;;;;13.57;7.00;;;;;;;13.25;59.38;101373.56;4965921;28;123775;-69
2023/03/21 05:14:12;;;;;;;15.50;7.35;;;;;;;13.26;59.46;101377.97;4973520;28;123691;-69
2023/03/21 05:16:43;;;;;;;18.70;7.40;;;;;;;13.27;59.50;101382.34;4970879;28;113245;-68
2023/03/21 05:19:12;;;;;;;15.18;7.80;;;;;;;13.28;59.32;101378.75;4970383;28;112993;-69
2023/03/21 05:21:41;;;;;;;14.50;7.28;;;;;;;13.28;59.41;101373.44;4964258;28;123456;-68
2023/03/21 05:24:21;;;;;;;16.33;6.65;;;;;;;13.27;59.38;101369.03;4962938;28;123796;-68
2023/03/21 05:26:49;;;;;;;18.25;7.63;;;;;;;13.27;59.42;101366.38;4964875;28;114480;-68
2023/03/21 05:29:18;;;;;;;14.15;7.40;;;;;;;13.26;59.57;101369.97;4953595;28;113267;-69
2023/03/21 05:31:52;;;;;;;14.32;7.13;;;;;;;13.28;59.43;101362.78;4970584;28;123686;-68
2023/03/21 05:34:20;;;;;;;14.15;6.90;;;;;;;13.28;59.49;101368.09;4965039;28;124034;-68
2023/03/21 05:36:47;;;;;;;15.40;6.90;;;;;;;13.29;59.46;101367.16;4950444;28;114150;-69
2023/03/21 05:39:15;;;;;;;18.17;6.88;;;;;;;13.29;59.47;101359.19;4931545;28;113008;-68
2023/03/21 05:41:51;;;;;;;13.63;6.50;;;;;;;13.31;59.42;101367.97;4949873;28;125296;-69
2023/03/21 05:44:18;;;;;;;16.70;6.53;;;;;;;13.29;59.11;101353.84;4948915;28;124446;-68
2023/03/21 05:46:45;;;;;;;13.25;6.90;;;;;;;13.30;59.35;101355.63;4946187;28;114349;-70
2023/03/21 05:49:13;;;;;;;18.88;7.47;;;;;;;13.30;59.38;101355.63;4952429;28;114645;-68
2023/03/21 05:51:41;;;;;;;13.38;6.80;;;;;;;13.31;59.41;101352.00;4948289;28;123561;-68
2023/03/21 05:54:08;;;;;;;16.15;7.10;;;;;;;13.32;59.37;101359.06;4933354;28;125217;-68
2023/03/21 05:56:35;;;;;;;14.68;7.35;;;;;;;13.32;59.25;101353.75;4953930;28;114398;-68
2023/03/21 05:59:06;;;;;;;13.70;6.53;;;;;;;13.34;59.26;101354.53;4949056;28;114824;-68
2023/03/21 06:01:39;;;;;;;15.13;6.72;;;;;;;13.34;59.22;101351.88;4949224;28;125750;-68
2023/03/21 06:04:11;;;;;;;11.82;6.78;;;;;;;13.36;59.28;101344.69;4954922;28;123451;-69
2023/03/21 06:06:39;;;;;;;17.33;6.55;;;;;;;13.37;59.24;101346.41;4964808;28;113592;-69
2023/03/21 06:09:07;;;;;;;13.65;7.00;;;;;;;13.38;59.28;101348.13;4964028;28;113407;-68
2023/03/21 06:11:36;;;;;;;13.13;6.57;;;;;;;13.39;59.09;101349.84;4946288;28;125361;-68
2023/03/21 06:14:23;;;;;;;20.00;7.20;;;;;;;13.40;59.17;101351.56;4939623;28;123249;-69
2023/03/21 06:17:08;;;;;;;17.65;7.25;;;;;;;13.41;59.01;101353.31;4957762;28;113504;-69
2023/03/21 06:19:42;;;;;;;18.27;7.10;;;;;;;13.42;58.97;101355.00;4966268;28;113232;-68
2023/03/21 06:22:15;;;;;;;19.20;6.75;;;;;;;13.43;59.15;101351.44;4950845;28;124386;-68
2023/03/21 06:24:43;;;;;;;15.32;6.57;;;;;;;13.45;59.10;101351.34;4952324;28;122982;-68
2023/03/21 06:27:10;;;;;;;17.58;6.95;;;;;;;13.47;59.04;101348.59;4970211;28;113501;-69
2023/03/21 06:29:48;;;;;;;11.30;6.30;;;;;;;13.49;59.11;101349.41;4951116;28;113468;-68
2023/03/21 06:32:16;;;;;;;17.35;6.65;;;;;;;13.50;59.05;101345.78;4954500;28;122788;-69
2023/03/21 06:34:44;;;;;;;20.65;6.53;;;;;;;13.51;58.92;101355.53;4956054;28;125693;-69
2023/03/21 06:37:14;;;;;;;14.00;6.63;;;;;;;13.51;58.98;101343.06;4954995;28;115199;-68
2023/03/21 06:39:41;;;;;;;13.57;6.63;;;;;;;13.53;58.94;101346.50;4977797;28;114075;-68
2023/03/21 06:42:09;;;;;;;14.88;5.97;;;;;;;13.54;58.98;101348.25;4960953;28;122148;-68
2023/03/21 06:44:36;;;;;;;20.60;6.93;;;;;;;13.56;59.04;101351.69;4970583;28;123679;-69
2023/03/21 06:47:07;;;;;;;12.38;6.15;;;;;;;13.56;58.86;101351.69;4955660;28;113672;-68
2023/03/21 06:49:35;;;;;;;12.85;5.90;;;;;;;13.58;59.06;101348.94;4973778;28;113443;-69
2023/03/21 06:52:07;;;;;;;13.82;6.45;;;;;;;13.60;58.99;101357.72;4942833;28;123125;-69
2023/03/21 06:54:35;;;;;;;11.18;5.90;;;;;;;13.62;58.93;101353.19;4987864;28;123105;-68
2023/03/21 06:57:09;;;;;;;18.70;5.97;;;;;;;13.65;59.14;101355.69;4993014;28;113772;-68
2023/03/21 06:59:38;;;;;;;13.07;5.82;;;;;;;13.68;58.92;101355.53;4969590;28;112350;-68
2023/03/21 07:02:11;;;;;;;13.45;5.70;;;;;;;13.70;59.03;101347.47;4956803;28;125024;-68
2023/03/21 07:04:45;;;;;;;16.10;5.50;;;;;;;13.74;58.92;101349.91;4950596;28;123446;-68
2023/03/21 07:07:17;;;;;;;13.07;5.50;;;;;;;13.77;58.81;101344.44;4969547;28;113481;-69
2023/03/21 07:09:44;;;;;;;15.90;5.00;;;;;;;13.80;58.82;101349.59;4969840;28;113678;-69
2023/03/21 07:12:12;;;;;;;16.13;6.50;;;;;;;13.82;58.88;101352.16;4969990;28;123698;-68
2023/03/21 07:15:03;;;;;;;9.02;4.78;;;;;;;13.83;58.66;101354.75;4944419;28;124759;-71
2023/03/21 07:17:31;;;;;;;12.65;5.45;;;;;;;13.89;58.83;101363.38;4933920;28;113529;-69
2023/03/21 07:19:59;;;;;;;12.73;5.05;;;;;;;13.92;58.84;101357.88;4968664;28;115401;-70
2023/03/21 07:22:26;;;;;;;11.15;4.95;;;;;;;13.97;58.91;101366.50;4951454;28;123307;-69
2023/03/21 07:24:53;;;;;;;11.88;4.93;;;;;;;14.00;58.77;101366.38;4950889;28;122697;-69
2023/03/21 07:27:36;;;;;;;12.88;4.90;;;;;;;14.04;58.89;101367.94;4964846;28;113776;-69
2023/03/21 07:30:08;;;;;;;12.05;4.82;;;;;;;14.07;58.65;101367.78;4966373;28;113795;-69
2023/03/21 07:32:36;;;;;;;16.73;5.10;;;;;;;14.08;58.70;101374.81;4953178;28;123602;-69
2023/03/21 07:35:10;;;;;;;15.32;5.50;;;;;;;14.07;58.68;101370.44;4966792;28;123665;-69
2023/03/21 07:37:39;;;;;;;13.75;5.22;;;;;;;14.07;58.80;101378.44;4955255;28;113058;-69
2023/03/21 07:40:09;;;;;;;10.60;4.63;;;;;;;14.06;58.87;101376.69;4971479;28;113255;-69
2023/03/21 07:42:38;;;;;;;14.75;4.97;;;;;;;14.06;58.91;101374.03;4954155;28;124692;-68
2023/03/21 07:45:07;;;;;;;14.07;4.90;;;;;;;14.06;59.00;101374.03;4952934;28;124179;-69
2023/03/21 07:47:35;;;;;;;12.55;4.70;;;;;;;14.06;58.97;101382.03;4958665;28;114601;-68
2023/03/21 07:50:03;;;;;;;10.23;4.53;;;;;;;14.06;59.03;101387.34;4967278;28;113186;-71
2023/03/21 07:52:30;;;;;;;16.33;4.82;;;;;;;14.08;59.08;101395.28;4969700;28;121921;-69
2023/03/21 07:54:57;;;;;;;12.15;5.30;;;;;;;14.08;59.22;101390.81;4960136;28;124092;-69
2023/03/21 07:57:25;;;;;;;14.75;5.43;;;;;;;14.09;59.16;101387.22;4959947;28;113992;-70
2023/03/21 07:59:52;;;;;;;11.02;5.00;;;;;;;14.08;59.22;101398.78;4955306;28;113663;-69
2023/03/21 08:02:19;;;;;;;14.98;5.70;;;;;;;14.09;59.36;101384.53;4963848;28;124010;-70
2023/03/21 08:04:46;;;;;;;14.70;5.65;;;;;;;14.10;59.17;101388.91;4976688;28;123322;-70
2023/03/21 08:07:14;;;;;;;13.43;5.28;;;;;;;14.09;59.25;101387.22;4962027;28;115246;-69
2023/03/21 08:09:42;;;;;;;10.82;5.03;;;;;;;14.06;59.31;101382.03;4954959;28;113964;-69
2023/03/21 08:12:10;;;;;;;13.48;5.18;;;;;;;14.05;59.39;101380.28;4962431;28;124201;-69
2023/03/21 08:14:37;;;;;;;13.90;5.75;;;;;;;14.04;59.71;101378.59;4960257;28;123761;-69
2023/03/21 08:17:05;;;;;;;12.98;5.35;;;;;;;14.04;59.55;101372.41;4961947;28;115072;-69
2023/03/21 08:19:32;;;;;;;12.95;5.78;;;;;;;14.05;59.61;101374.97;4968286;28;114689;-70
2023/03/21 08:22:01;;;;;;;13.75;5.20;;;;;;;14.05;59.58;101374.09;4961741;28;123880;-70
2023/03/21 08:24:28;;;;;;;9.80;5.63;;;;;;;14.06;59.56;101363.38;4955041;28;124111;-70
2023/03/21 08:26:56;;;;;;;12.65;5.20;;;;;;;14.08;59.68;101369.50;4964583;28;113421;-70
2023/03/21 08:29:24;;;;;;;13.15;5.75;;;;;;;14.09;59.70;101355.25;4959159;28;114598;-70
2023/03/21 08:31:51;;;;;;;13.68;5.50;;;;;;;14.09;59.76;101347.25;4965936;28;122997;-70
2023/03/21 08:34:19;;;;;;;14.23;5.65;;;;;;;14.10;59.80;101346.28;4957982;28;123653;-70
2023/03/21 08:36:46;;;;;;;11.27;5.60;;;;;;;14.11;59.84;101342.72;4960156;28;114686;-71
2023/03/21 08:39:13;;;;;;;16.50;5.60;;;;;;;14.14;59.86;101331.03;4959020;28;114202;-71
2023/03/21 08:41:40;;;;;;;16.20;5.53;;;;;;;14.16;59.87;101335.31;4974386;28;123293;-71
2023/03/21 08:44:09;;;;;;;13.52;6.10;;;;;;;14.19;59.92;101339.63;4967498;28;122826;-71
2023/03/21 08:46:36;;;;;;;13.75;5.50;;;;;;;14.21;59.96;101338.59;4978915;28;114474;-71
2023/03/21 08:49:04;;;;;;;15.02;5.43;;;;;;;14.24;60.12;101336.72;4969754;28;112962;-71
2023/03/21 08:51:32;;;;;;;13.63;5.88;;;;;;;14.28;59.95;101327.63;4968960;28;124201;-71
2023/03/21 08:53:59;;;;;;;13.82;5.45;;;;;;;14.31;60.06;101333.66;4958379;28;123790;-71
2023/03/21 08:56:26;;;;;;;13.10;6.05;;;;;;;14.35;60.15;101331.69;4963717;28;113997;-70
2023/03/21 08:58:53;;;;;;;12.82;5.72;;;;;;;14.39;60.12;101330.56;4964346;28;113767;-70
2023/03/21 09:01:20;;;;;;;11.43;5.78;;;;;;;14.40;59.97;101329.66;4960921;28;124262;-70
2023/03/21 09:03:48;;;;;;;14.93;5.70;;;;;;;14.42;60.10;101330.44;4955291;28;123731;-70
2023/03/21 09:06:16;;;;;;;12.55;5.47;;;;;;;14.44;60.12;101335.69;4962222;28;114886;-70
2023/03/21 09:08:45;;;;;;;12.77;5.35;;;;;;;14.45;60.05;101338.28;4967207;28;114193;-71
2023/03/21 09:11:13;;;;;;;13.70;5.95;;;;;;;14.45;59.98;101330.28;4967045;28;123851;-70
2023/03/21 09:13:40;;;;;;;10.82;6.22;;;;;;;14.45;60.05;101332.94;4954660;28;123446;-70
2023/03/21 09:16:07;;;;;;;12.02;5.80;;;;;;;14.46;60.00;101331.97;4964503;28;114221;-70
2023/03/21 09:18:44;;;;;;;10.98;5.85;;;;;;;14.46;60.08;101326.66;4964805;28;112823;-70
2023/03/21 09:21:13;;;;;;;12.82;6.20;;;;;;;14.48;60.16;101330.09;4964843;28;123891;-70
2023/03/21 09:23:41;;;;;;;10.52;6.00;;;;;;;14.52;60.22;101326.34;4966100;28;122886;-70
2023/03/21 09:26:08;;;;;;;14.32;5.65;;;;;;;14.54;60.25;101324.44;4960299;28;114211;-70
2023/03/21 09:28:37;;;;;;;11.10;5.65;;;;;;;14.56;60.08;101317.22;4969096;28;114132;-70
2023/03/21 09:31:07;;;;;;;11.30;6.00;;;;;;;14.58;60.27;101310.03;4967745;28;123715;-71
2023/03/21 09:33:34;;;;;;;14.77;5.18;;;;;;;14.60;60.08;101297.47;4966211;28;126632;-70
2023/03/21 09:36:08;;;;;;;12.65;5.97;;;;;;;14.62;60.12;101299.19;4966372;28;114649;-70
2023/03/21 09:38:36;;;;;;;11.47;5.80;;;;;;;14.62;59.99;101304.53;4961015;28;114056;-70
2023/03/21 09:41:26;;;;;;;16.40;6.70;;;;;;;14.61;60.21;101298.34;4974316;28;123583;-70
2023/03/21 09:44:03;;;;;;;10.60;6.28;;;;;;;14.64;60.21;101297.34;4957164;28;123861;-70
2023/03/21 09:46:41;;;;;;;13.20;6.15;;;;;;;14.66;60.20;101290.09;4953649;28;114270;-70
2023/03/21 09:49:20;;;;;;;10.50;6.22;;;;;;;14.72;60.40;101287.09;4962804;28;114067;-70
2023/03/21 09:51:51;;;;;;;14.13;6.75;;;;;;;14.78;60.51;101289.41;4957146;28;123019;-70
2023/03/21 09:54:21;;;;;;;13.75;6.40;;;;;;;14.81;60.49;101289.25;4974407;28;124413;-70
2023/03/21 09:56:53;;;;;;;12.07;7.00;;;;;;;14.87;60.53;101291.56;4966800;28;116096;-70
2023/03/21 09:59:32;;;;;;;12.63;6.22;;;;;;;14.92;60.53;101286.00;4959263;28;115560;-70
2023/03/21 10:02:00;;;;;;;11.20;5.90;;;;;;;14.98;60.48;101281.16;4958096;28;123371;-70
2023/03/21 10:04:28;;;;;;;12.60;6.10;;;;;;;15.05;60.44;101275.47;4963518;28;122873;-70
2023/03/21 10:06:58;;;;;;;12.05;5.88;;;;;;;15.09;60.63;101271.69;4962895;28;114066;-70
2023/03/21 10:09:27;;;;;;;13.20;5.70;;;;;;;15.11;60.10;101264.47;4962329;28;115578;-70
2023/03/21 10:12:29;;;;;;;9.77;5.25;;;;;;;15.09;60.05;101261.03;4962529;28;124816;-70
2023/03/21 10:14:59;;;;;;;11.02;5.32;;;;;;;15.11;60.02;101264.47;4969710;28;123559;-70
2023/03/21 10:17:41;;;;;;;13.23;5.22;;;;;;;15.14;59.97;101256.25;4969791;28;114970;-70
2023/03/21 10:20:12;;;;;;;10.63;5.00;;;;;;;15.17;59.77;101250.75;4966042;28;114651;-70
2023/03/21 10:22:39;;;;;;;12.65;5.13;;;;;;;15.20;59.65;101253.25;4944057;28;122959;-70
2023/03/21 10:25:11;;;;;;;10.82;5.30;;;;;;;15.21;59.77;101249.63;4959596;28;124634;-70
2023/03/21 10:27:39;;;;;;;12.40;5.00;;;;;;;15.25;59.61;101245.81;4957358;28;114170;-70
2023/03/21 10:30:14;;;;;;;9.45;5.32;;;;;;;15.29;59.63;101247.38;4963931;28;114419;-70
2023/03/21 10:32:41;;;;;;;11.23;5.72;;;;;;;15.31;59.35;101245.50;4953470;28;124474;-70
2023/03/21 10:35:12;;;;;;;12.35;4.88;;;;;;;15.34;59.31;101247.97;4955658;28;124193;-70
2023/03/21 10:37:40;;;;;;;7.65;3.80;;;;;;;15.37;59.37;101245.13;4957591;28;114248;-70
2023/03/21 10:40:14;;;;;;;11.88;5.18;;;;;;;15.41;59.27;101228.91;4966216;28;114209;-70
2023/03/21 10:42:42;;;;;;;9.23;4.50;;;;;;;15.44;59.14;101231.41;4957304;28;125097;-70
2023/03/21 10:45:18;;;;;;;10.95;5.05;;;;;;;15.48;58.96;101222.25;4970619;28;123903;-70
2023/03/21 10:47:48;;;;;;;11.45;5.13;;;;;;;15.49;58.86;101227.50;4949600;28;115137;-70
2023/03/21 10:50:19;;;;;;;10.93;5.45;;;;;;;15.52;58.81;101227.34;4958777;28;116172;-70
2023/03/21 10:52:50;;;;;;;10.70;5.43;;;;;;;15.55;58.73;101231.63;4973095;28;124364;-71
2023/03/21 10:55:39;;;;;;;14.82;5.47;;;;;;;15.55;58.63;101226.28;4965383;28;125739;-70
2023/03/21 10:58:17;;;;;;;12.48;5.82;;;;;;;15.58;58.56;101221.63;4956876;28;114178;-70
2023/03/21 11:00:46;;;;;;;10.95;5.10;;;;;;;15.61;58.62;101220.56;4955675;28;114257;-70
2023/03/21 11:03:36;;;;;;;9.63;4.70;;;;;;;15.65;58.47;101230.16;4977282;28;123631;-70
2023/03/21 11:06:11;;;;;;;11.38;5.20;;;;;;;15.67;58.33;101225.56;4966088;28;124618;-70
2023/03/21 11:08:42;;;;;;;12.02;5.18;;;;;;;15.70;58.53;101236.03;4940492;28;113712;-70
2023/03/21 11:11:14;;;;;;;10.23;4.55;;;;;;;15.75;58.37;101234.00;4957351;28;114217;-71
2023/03/21 11:13:43;;;;;;;11.15;4.40;;;;;;;15.79;58.39;101239.16;4948682;28;124035;-72
2023/03/21 11:16:21;;;;;;;8.23;4.93;;;;;;;15.84;58.35;101242.41;4960739;28;124441;-70
2023/03/21 11:18:51;;;;;;;10.88;5.22;;;;;;;15.90;58.37;101236.69;4962142;28;113598;-69
2023/03/21 11:21:20;;;;;;;9.02;4.55;;;;;;;15.94;58.28;101243.56;4958047;28;115109;-70
2023/03/21 11:23:50;;;;;;;7.90;4.28;;;;;;;15.98;58.20;101239.75;4965529;28;123811;-69
2023/03/21 11:26:26;;;;;;;6.00;4.03;;;;;;;16.05;58.05;101235.75;4961199;28;124325;-69
2023/03/21 11:28:54;;;;;;;6.80;4.30;;;;;;;16.08;57.84;101224.00;4967254;28;114133;-69
2023/03/21 11:31:23;;;;;;;7.10;4.00;;;;;;;16.11;57.62;101223.81;4970416;28;113903;-69
2023/03/21 11:33:59;;;;;;;9.45;4.25;;;;;;;16.13;57.67;101216.56;4964771;28;124329;-70
2023/03/21 11:36:32;;;;;;;;;;;;;;;16.15;57.69;101220.84;4960271;28;124166;-70